createdAt,value
2022-09-12T00:01:27.957Z,68.37
2022-09-12T00:03:58.427Z,68.36
2022-09-12T00:06:32.724Z,68.39
2022-09-12T00:09:04.618Z,68.37
2022-09-12T00:11:34.815Z,68.35
2022-09-12T00:14:03.765Z,68.63
2022-09-12T00:16:33.988Z,68.53
2022-09-12T00:19:04.566Z,68.58
2022-09-12T00:21:34.393Z,68.64
2022-09-12T00:24:02.651Z,68.75
2022-09-12T00:26:30.818Z,68.54
2022-09-12T00:28:58.736Z,68.72
2022-09-12T00:31:27.465Z,68.69
2022-09-12T00:33:58.841Z,68.71
2022-09-12T00:36:27.725Z,68.72
2022-09-12T00:38:56.773Z,68.81
2022-09-12T00:41:28.682Z,68.79
2022-09-12T00:43:59.907Z,68.78
2022-09-12T00:46:49.025Z,68.72
2022-09-12T00:49:45.711Z,68.64
2022-09-12T00:52:34.292Z,68.83
2022-09-12T00:55:10.961Z,68.69
2022-09-12T00:57:57.171Z,68.85
2022-09-12T01:00:27.442Z,68.68
2022-09-12T01:03:00.364Z,68.82
2022-09-12T01:05:31.413Z,68.68
2022-09-12T01:08:02.554Z,68.83
2022-09-12T01:10:30.901Z,68.67
2022-09-12T01:12:59.453Z,68.67
2022-09-12T01:15:27.406Z,68.75
2022-09-12T01:18:10.785Z,68.67
2022-09-12T01:21:02.887Z,68.75
2022-09-12T01:24:06.271Z,68.84
2022-09-12T01:27:04.190Z,68.85
2022-09-12T01:30:01.289Z,68.83
2022-09-12T01:33:09.221Z,68.87
2022-09-12T01:36:12.664Z,68.79
2022-09-12T01:38:50.535Z,68.91
2022-09-12T01:41:39.144Z,68.81
2022-09-12T01:44:27.624Z,68.94
2022-09-12T01:47:22.505Z,68.82
2022-09-12T01:50:07.403Z,68.77
2022-09-12T01:52:45.670Z,68.88
2022-09-12T01:55:23.163Z,68.73
2022-09-12T01:58:36.073Z,69.02
2022-09-12T02:01:11.334Z,68.84
2022-09-12T02:04:04.771Z,69.01
2022-09-12T02:06:43.957Z,69.06
2022-09-12T02:09:20.948Z,68.92
2022-09-12T02:11:53.762Z,69.06
2022-09-12T02:14:36.917Z,69.14
2022-09-12T02:17:34.802Z,68.98
2022-09-12T02:20:26.089Z,69.02
2022-09-12T02:23:06.680Z,69.14
2022-09-12T02:25:38.020Z,69.08
2022-09-12T02:28:13.785Z,69.10
2022-09-12T02:31:08.178Z,69.07
2022-09-12T02:33:45.923Z,69.19
2022-09-12T02:36:31.634Z,69.15
2022-09-12T02:39:00.269Z,69.03
2022-09-12T02:41:28.672Z,69.09
2022-09-12T02:43:56.764Z,69.22
2022-09-12T02:46:46.861Z,69.18
2022-09-12T02:49:15.933Z,69.23
2022-09-12T02:51:45.099Z,69.05
2022-09-12T02:54:15.211Z,69.35
2022-09-12T02:56:46.200Z,69.14
2022-09-12T02:59:18.121Z,69.25
2022-09-12T03:02:07.953Z,69.30
2022-09-12T03:04:54.416Z,69.32
2022-09-12T03:07:59.944Z,69.17
2022-09-12T03:11:25.590Z,69.25
2022-09-12T03:14:13.458Z,69.33
2022-09-12T03:16:57.065Z,69.27
2022-09-12T03:19:37.918Z,69.31
2022-09-12T03:22:18.964Z,69.35
2022-09-12T03:25:02.860Z,69.28
2022-09-12T03:27:35.782Z,69.33
2022-09-12T03:30:06.374Z,69.28
2022-09-12T03:32:49.457Z,69.42
2022-09-12T03:35:22.843Z,69.36
2022-09-12T03:37:52.292Z,69.33
2022-09-12T03:40:20.466Z,69.37
2022-09-12T03:42:49.393Z,69.45
2022-09-12T03:45:17.370Z,69.45
2022-09-12T03:47:48.575Z,69.59
2022-09-12T03:50:16.587Z,69.69
2022-09-12T03:52:44.397Z,69.79
2022-09-12T03:55:12.469Z,69.62
2022-09-12T03:57:40.662Z,69.78
2022-09-12T04:00:09.634Z,69.85
2022-09-12T04:02:44.150Z,69.81
2022-09-12T04:05:11.965Z,69.95
2022-09-12T04:07:39.795Z,69.87
2022-09-12T04:10:09.534Z,69.86
2022-09-12T04:12:39.676Z,69.75
2022-09-12T04:15:08.932Z,69.61
2022-09-12T04:17:36.938Z,69.83
2022-09-12T04:20:05.768Z,69.83
2022-09-12T04:22:33.915Z,69.64
2022-09-12T04:25:03.557Z,69.70
2022-09-12T04:27:31.786Z,69.72
2022-09-12T04:30:01.395Z,69.67
2022-09-12T04:32:31.289Z,69.78
2022-09-12T04:34:59.158Z,69.73
2022-09-12T04:37:26.939Z,69.66
2022-09-12T04:39:59.310Z,69.93
2022-09-12T04:42:27.153Z,69.60
2022-09-12T04:44:55.026Z,69.73
2022-09-12T04:47:23.309Z,69.81
2022-09-12T04:49:51.590Z,69.72
2022-09-12T04:52:20.810Z,69.64
2022-09-12T04:54:48.721Z,69.77
2022-09-12T04:57:19.062Z,69.79
2022-09-12T04:59:47.101Z,69.72
2022-09-12T05:02:14.922Z,69.63
2022-09-12T05:04:44.215Z,69.55
2022-09-12T05:07:12.393Z,69.48
2022-09-12T05:09:40.249Z,69.68
2022-09-12T05:12:10.043Z,69.69
2022-09-12T05:14:37.917Z,69.65
2022-09-12T05:17:06.288Z,69.61
2022-09-12T05:19:34.914Z,69.69
2022-09-12T05:22:02.794Z,69.67
2022-09-12T05:24:30.647Z,69.56
2022-09-12T05:26:59.015Z,69.46
2022-09-12T05:29:29.923Z,69.43
2022-09-12T05:31:57.988Z,69.33
2022-09-12T05:34:26.323Z,69.29
2022-09-12T05:36:54.297Z,69.43
2022-09-12T05:39:25.989Z,69.46
2022-09-12T05:41:55.470Z,69.34
2022-09-12T05:44:23.213Z,69.31
2022-09-12T05:46:53.750Z,69.54
2022-09-12T05:49:24.863Z,69.57
2022-09-12T05:51:52.937Z,69.46
2022-09-12T05:54:21.389Z,69.54
2022-09-12T05:56:49.680Z,69.62
2022-09-12T05:59:20.606Z,69.30
2022-09-12T06:01:49.295Z,69.33
2022-09-12T06:04:18.132Z,69.23
2022-09-12T06:06:49.200Z,69.28
2022-09-12T06:09:17.001Z,69.31
2022-09-12T06:11:46.425Z,69.15
2022-09-12T06:14:18.055Z,69.35
2022-09-12T06:16:47.474Z,69.44
2022-09-12T06:19:20.665Z,69.08
2022-09-12T06:21:53.665Z,69.12
2022-09-12T06:24:21.742Z,69.05
2022-09-12T06:26:52.867Z,69.17
2022-09-12T06:29:22.051Z,69.06
2022-09-12T06:31:51.496Z,68.95
2022-09-12T06:34:20.076Z,68.82
2022-09-12T06:36:49.791Z,68.67
2022-09-12T06:39:22.395Z,68.67
2022-09-12T06:41:51.859Z,68.80
2022-09-12T06:44:34.239Z,68.68
2022-09-12T06:47:02.053Z,68.78
2022-09-12T06:49:31.180Z,68.74
2022-09-12T06:52:01.166Z,68.66
2022-09-12T06:54:29.058Z,68.69
2022-09-12T06:56:56.944Z,68.78
2022-09-12T06:59:25.020Z,68.54
2022-09-12T07:01:52.924Z,68.46
2022-09-12T07:04:20.966Z,68.36
2022-09-12T07:06:54.071Z,68.49
2022-09-12T07:09:22.259Z,68.51
2022-09-12T07:11:50.150Z,68.45
2022-09-12T07:14:18.059Z,68.40
2022-09-12T07:16:46.092Z,68.40
2022-09-12T07:19:14.787Z,68.43
2022-09-12T07:21:44.301Z,68.31
2022-09-12T07:24:12.183Z,68.38
2022-09-12T07:26:42.508Z,68.27
2022-09-12T07:29:35.985Z,68.23
2022-09-12T07:32:06.025Z,68.16
2022-09-12T07:34:34.972Z,68.08
2022-09-12T07:37:03.295Z,68.25
2022-09-12T07:39:31.265Z,68.07
2022-09-12T07:42:00.648Z,68.06
2022-09-12T07:44:30.371Z,68.00
2022-09-12T07:46:58.460Z,67.95
2022-09-12T07:49:26.331Z,67.89
2022-09-12T07:51:54.120Z,67.95
2022-09-12T07:54:22.021Z,67.92
2022-09-12T07:56:49.869Z,67.76
2022-09-12T07:59:30.210Z,67.88
2022-09-12T08:02:16.571Z,67.88
2022-09-12T08:04:45.307Z,67.84
2022-09-12T08:07:13.233Z,67.86
2022-09-12T08:09:42.127Z,67.85
2022-09-12T08:12:10.439Z,67.55
2022-09-12T08:14:38.647Z,67.59
2022-09-12T08:17:07.745Z,67.53
2022-09-12T08:19:36.364Z,67.39
2022-09-12T08:22:07.046Z,67.31
2022-09-12T08:24:34.937Z,67.32
2022-09-12T08:27:04.140Z,67.25
2022-09-12T08:29:32.115Z,66.97
2022-09-12T08:32:00.163Z,66.97
2022-09-12T08:34:28.043Z,66.93
2022-09-12T08:36:55.866Z,66.97
2022-09-12T08:39:25.068Z,66.83
2022-09-12T08:42:03.330Z,66.73
2022-09-12T08:45:05.882Z,66.79
2022-09-12T08:47:45.305Z,66.56
2022-09-12T08:50:19.883Z,66.44
2022-09-12T08:52:58.823Z,66.26
2022-09-12T08:55:41.519Z,66.18
2022-09-12T08:58:24.318Z,66.43
2022-09-12T09:01:35.858Z,66.27
2022-09-12T09:04:31.406Z,66.10
2022-09-12T09:07:18.997Z,65.72
2022-09-12T09:10:17.018Z,65.40
2022-09-12T09:13:41.066Z,65.34
2022-09-12T09:16:27.286Z,65.52
2022-09-12T09:19:17.692Z,65.60
2022-09-12T09:21:59.144Z,65.31
2022-09-12T09:24:45.546Z,65.29
2022-09-12T09:27:44.178Z,65.25
2022-09-12T09:30:17.577Z,65.11
2022-09-12T09:32:52.455Z,64.97
2022-09-12T09:35:59.553Z,64.94
2022-09-12T09:38:41.802Z,64.99
2022-09-12T09:42:07.882Z,65.07
2022-09-12T09:44:36.677Z,64.80
2022-09-12T09:47:05.536Z,64.68
2022-09-12T09:49:35.254Z,64.67
2022-09-12T09:52:07.380Z,64.54
2022-09-12T09:54:41.364Z,64.50
2022-09-12T09:57:34.548Z,64.27
2022-09-12T10:00:21.969Z,64.43
2022-09-12T10:03:13.843Z,64.32
2022-09-12T10:05:46.968Z,64.43
2022-09-12T10:08:31.146Z,64.44
2022-09-12T10:11:17.530Z,63.62
2022-09-12T10:13:57.969Z,63.69
2022-09-12T10:16:33.539Z,63.38
2022-09-12T10:19:04.137Z,63.53
2022-09-12T10:21:41.354Z,63.32
2022-09-12T10:24:43.671Z,63.23
2022-09-12T10:27:20.736Z,63.20
2022-09-12T10:30:04.679Z,63.03
2022-09-12T10:32:47.127Z,62.94
2022-09-12T10:35:24.135Z,62.95
2022-09-12T10:38:04.933Z,62.82
2022-09-12T10:40:45.447Z,62.83
2022-09-12T10:43:24.517Z,62.95
2022-09-12T10:46:19.960Z,63.00
2022-09-12T10:49:11.838Z,62.94
2022-09-12T10:52:25.803Z,62.71
2022-09-12T10:54:54.952Z,62.71
2022-09-12T10:57:25.720Z,62.69
2022-09-12T11:00:18.066Z,62.42
2022-09-12T11:02:58.978Z,62.00
2022-09-12T11:05:49.377Z,61.74
2022-09-12T11:08:48.377Z,61.93
2022-09-12T11:12:01.340Z,61.74
2022-09-12T11:15:03.238Z,61.81
2022-09-12T11:17:54.346Z,61.55
2022-09-12T11:21:04.120Z,61.45
2022-09-12T11:24:00.197Z,61.41
2022-09-12T11:27:00.998Z,61.44
2022-09-12T11:30:10.430Z,61.17
2022-09-12T11:33:23.550Z,60.99
2022-09-12T11:35:55.531Z,61.00
2022-09-12T11:39:07.209Z,61.20
2022-09-12T11:41:36.890Z,61.18
2022-09-12T11:44:27.143Z,61.21
2022-09-12T11:46:55.198Z,60.75
2022-09-12T11:49:47.531Z,60.81
2022-09-12T11:52:19.968Z,60.62
2022-09-12T11:55:05.993Z,60.52
2022-09-12T11:57:41.607Z,60.66
2022-09-12T12:00:20.343Z,60.17
2022-09-12T12:03:06.558Z,60.38
2022-09-12T12:05:57.871Z,60.36
2022-09-12T12:08:27.824Z,60.31
2022-09-12T12:11:02.330Z,60.00
2022-09-12T12:13:51.100Z,60.51
2022-09-12T12:16:30.047Z,60.38
2022-09-12T12:19:00.424Z,59.97
2022-09-12T12:21:36.969Z,60.20
2022-09-12T12:24:08.153Z,59.50
2022-09-12T12:26:41.270Z,59.64
2022-09-12T12:29:24.281Z,59.79
2022-09-12T12:32:25.048Z,59.62
2022-09-12T12:35:02.596Z,59.61
2022-09-12T12:37:30.320Z,59.88
2022-09-12T12:40:09.782Z,59.63
2022-09-12T12:42:43.865Z,59.56
2022-09-12T12:45:30.084Z,59.35
2022-09-12T12:48:10.252Z,59.26
2022-09-12T12:50:39.529Z,59.20
2022-09-12T12:53:19.747Z,59.17
2022-09-12T12:55:53.260Z,58.90
2022-09-12T12:58:34.714Z,58.16
2022-09-12T13:01:25.831Z,58.15
2022-09-12T13:03:56.286Z,58.27
2022-09-12T13:06:32.110Z,57.94
2022-09-12T13:09:06.089Z,57.86
2022-09-12T13:11:40.491Z,57.04
2022-09-12T13:14:36.162Z,57.08
2022-09-12T13:17:08.451Z,57.14
2022-09-12T13:19:38.158Z,56.97
2022-09-12T13:22:08.886Z,57.26
2022-09-12T13:24:49.186Z,57.46
2022-09-12T13:27:19.807Z,57.33
2022-09-12T13:29:47.937Z,57.41
2022-09-12T13:32:18.351Z,57.35
2022-09-12T13:35:21.284Z,57.63
2022-09-12T13:38:23.604Z,57.58
2022-09-12T13:41:27.181Z,57.55
2022-09-12T13:43:55.162Z,57.73
2022-09-12T13:46:31.409Z,57.61
2022-09-12T13:49:01.497Z,57.56
2022-09-12T13:51:32.247Z,57.58
2022-09-12T13:54:04.719Z,57.55
2022-09-12T13:56:33.296Z,57.47
2022-09-12T13:59:02.614Z,57.51
2022-09-12T14:01:47.694Z,57.51
2022-09-12T14:04:43.549Z,57.57
2022-09-12T14:07:20.356Z,57.62
2022-09-12T14:09:57.442Z,57.39
2022-09-12T14:12:30.365Z,57.48
2022-09-12T14:14:59.442Z,57.37
2022-09-12T14:17:29.969Z,57.41
2022-09-12T14:20:03.641Z,57.50
2022-09-12T14:22:34.277Z,57.51
2022-09-12T14:25:03.467Z,57.28
2022-09-12T14:27:45.776Z,57.44
2022-09-12T14:30:32.131Z,57.37
2022-09-12T14:33:18.968Z,57.10
2022-09-12T14:35:51.170Z,57.17
2022-09-12T14:38:36.183Z,57.07
2022-09-12T14:41:10.568Z,56.73
2022-09-12T14:43:46.018Z,56.62
2022-09-12T14:46:28.684Z,56.04
2022-09-12T14:49:29.580Z,56.24
2022-09-12T14:52:00.220Z,56.14
2022-09-12T14:54:39.561Z,56.27
2022-09-12T14:57:30.563Z,56.19
2022-09-12T15:00:21.035Z,56.37
2022-09-12T15:02:50.236Z,56.33
2022-09-12T15:05:21.438Z,56.15
2022-09-12T15:08:01.293Z,56.20
2022-09-12T15:10:37.843Z,56.55
2022-09-12T15:13:05.556Z,56.59
2022-09-12T15:15:34.097Z,56.36
2022-09-12T15:18:06.846Z,56.47
2022-09-12T15:20:41.382Z,56.46
2022-09-12T15:23:21.256Z,56.62
2022-09-12T15:25:49.437Z,56.47
2022-09-12T15:28:22.779Z,56.44
2022-09-12T15:30:54.910Z,56.42
2022-09-12T15:33:25.437Z,56.40
2022-09-12T15:35:53.678Z,56.48
2022-09-12T15:38:25.797Z,56.51
2022-09-12T15:40:55.048Z,56.44
2022-09-12T15:43:23.848Z,56.31
2022-09-12T15:45:52.505Z,56.40
2022-09-12T15:48:21.202Z,56.47
2022-09-12T15:50:49.381Z,56.43
2022-09-12T15:53:17.869Z,56.36
2022-09-12T15:55:46.577Z,56.32
2022-09-12T15:58:14.443Z,56.49
2022-09-12T16:00:42.286Z,56.43
2022-09-12T16:03:20.526Z,56.41
2022-09-12T16:05:56.377Z,56.30
2022-09-12T16:08:25.162Z,56.15
2022-09-12T16:10:58.735Z,55.92
2022-09-12T16:13:26.939Z,55.86
2022-09-12T16:15:58.993Z,55.75
2022-09-12T16:18:28.481Z,55.66
2022-09-12T16:20:57.062Z,55.36
2022-09-12T16:23:26.018Z,55.12
2022-09-12T16:26:01.482Z,55.12
2022-09-12T16:28:29.415Z,55.10
2022-09-12T16:31:00.000Z,55.13
2022-09-12T16:33:29.079Z,54.95
2022-09-12T16:36:12.039Z,54.74
2022-09-12T16:38:54.252Z,54.79
2022-09-12T16:41:27.602Z,54.92
2022-09-12T16:44:00.537Z,55.02
2022-09-12T16:46:29.373Z,55.00
2022-09-12T16:48:58.887Z,55.10
2022-09-12T16:51:32.023Z,55.14
2022-09-12T16:53:59.894Z,55.23
2022-09-12T16:56:28.041Z,55.31
2022-09-12T16:58:56.030Z,55.33
2022-09-12T17:01:25.849Z,55.48
2022-09-12T17:03:56.650Z,55.58
2022-09-12T17:06:26.307Z,55.73
2022-09-12T17:08:59.056Z,55.82
2022-09-12T17:11:32.773Z,56.06
2022-09-12T17:14:05.373Z,56.11
2022-09-12T17:16:42.040Z,56.36
2022-09-12T17:19:15.995Z,56.38
2022-09-12T17:21:47.695Z,56.56
2022-09-12T17:24:20.220Z,56.49
2022-09-12T17:26:48.465Z,56.59
2022-09-12T17:29:17.621Z,56.74
2022-09-12T17:31:47.107Z,56.62
2022-09-12T17:34:17.457Z,56.84
2022-09-12T17:36:49.265Z,56.95
2022-09-12T17:39:19.058Z,57.20
2022-09-12T17:41:47.805Z,57.16
2022-09-12T17:44:17.600Z,57.35
2022-09-12T17:46:46.503Z,57.40
2022-09-12T17:49:16.760Z,57.42
2022-09-12T17:51:45.871Z,57.65
2022-09-12T17:54:17.645Z,57.74
2022-09-12T17:56:49.381Z,57.89
2022-09-12T17:59:30.817Z,58.11
2022-09-12T18:02:14.922Z,58.22
2022-09-12T18:04:46.507Z,58.34
2022-09-12T18:07:18.831Z,58.46
2022-09-12T18:09:51.328Z,58.69
2022-09-12T18:12:20.501Z,58.91
2022-09-12T18:14:48.719Z,59.08
2022-09-12T18:17:17.384Z,59.15
2022-09-12T18:19:50.360Z,59.25
2022-09-12T18:22:21.924Z,59.45
2022-09-12T18:24:51.026Z,59.38
2022-09-12T18:27:19.545Z,59.52
2022-09-12T18:30:04.218Z,59.71
2022-09-12T18:32:36.451Z,59.81
2022-09-12T18:35:06.380Z,59.97
2022-09-12T18:37:36.033Z,60.11
2022-09-12T18:40:05.090Z,60.11
2022-09-12T18:42:33.642Z,60.19
2022-09-12T18:45:02.707Z,60.24
2022-09-12T18:47:32.540Z,60.50
2022-09-12T18:50:01.948Z,60.55
2022-09-12T18:52:30.437Z,60.48
2022-09-12T18:54:59.328Z,60.57
2022-09-12T18:57:27.916Z,60.62
2022-09-12T19:00:00.297Z,60.78
2022-09-12T19:02:29.486Z,60.84
2022-09-12T19:04:57.835Z,60.89
2022-09-12T19:07:26.280Z,61.00
2022-09-12T19:09:54.929Z,61.07
2022-09-12T19:12:24.605Z,61.24
2022-09-12T19:14:52.891Z,61.30
2022-09-12T19:17:21.564Z,61.07
2022-09-12T19:19:49.644Z,61.19
2022-09-12T19:22:17.813Z,61.17
2022-09-12T19:24:45.668Z,61.28
2022-09-12T19:27:13.843Z,61.18
2022-09-12T19:29:41.949Z,61.29
2022-09-12T19:32:10.144Z,61.47
2022-09-12T19:34:38.064Z,61.49
2022-09-12T19:37:05.900Z,61.48
2022-09-12T19:39:34.564Z,61.70
2022-09-12T19:42:02.584Z,61.68
2022-09-12T19:44:30.632Z,61.76
2022-09-12T19:46:58.661Z,61.64
2022-09-12T19:49:26.579Z,61.62
2022-09-12T19:51:54.478Z,61.82
2022-09-12T19:54:22.402Z,61.87
2022-09-12T19:56:50.690Z,61.93
2022-09-12T19:59:18.840Z,62.05
2022-09-12T20:01:47.570Z,62.22
2022-09-12T20:04:16.736Z,62.23
2022-09-12T20:06:45.025Z,62.30
2022-09-12T20:09:13.232Z,62.34
2022-09-12T20:11:41.064Z,62.43
2022-09-12T20:14:09.618Z,62.28
2022-09-12T20:16:37.864Z,62.35
2022-09-12T20:19:08.527Z,62.35
2022-09-12T20:21:36.899Z,62.28
2022-09-12T20:24:07.495Z,62.35
2022-09-12T20:26:35.950Z,62.44
2022-09-12T20:29:05.753Z,62.66
2022-09-12T20:31:34.635Z,62.73
2022-09-12T20:34:04.408Z,62.99
2022-09-12T20:36:32.382Z,63.22
2022-09-12T20:39:03.678Z,63.22
2022-09-12T20:41:34.569Z,63.26
2022-09-12T20:44:02.667Z,63.26
2022-09-12T20:46:30.564Z,63.31
2022-09-12T20:48:58.889Z,63.30
2022-09-12T20:51:27.382Z,63.24
2022-09-12T20:53:57.343Z,63.30
2022-09-12T20:56:27.322Z,63.21
2022-09-12T20:58:55.894Z,63.49
2022-09-12T21:01:25.823Z,63.74
2022-09-12T21:03:53.962Z,63.79
2022-09-12T21:06:22.147Z,63.79
2022-09-12T21:08:50.614Z,63.76
2022-09-12T21:11:20.012Z,63.77
2022-09-12T21:13:47.898Z,63.91
2022-09-12T21:16:21.133Z,63.90
2022-09-12T21:19:18.858Z,64.11
2022-09-12T21:21:46.609Z,64.12
2022-09-12T21:24:15.214Z,63.85
2022-09-12T21:26:43.064Z,63.94
2022-09-12T21:29:11.090Z,63.90
2022-09-12T21:31:38.958Z,63.94
2022-09-12T21:34:06.861Z,63.99
2022-09-12T21:36:34.909Z,64.08
2022-09-12T21:39:04.000Z,64.02
2022-09-12T21:41:32.345Z,64.17
2022-09-12T21:44:00.468Z,64.23
2022-09-12T21:46:28.309Z,64.19
2022-09-12T21:48:56.438Z,64.30
2022-09-12T21:51:24.255Z,64.26
2022-09-12T21:53:52.101Z,64.45
2022-09-12T21:56:20.338Z,64.25
2022-09-12T21:58:48.163Z,64.57
2022-09-12T22:01:16.616Z,64.47
2022-09-12T22:03:44.808Z,64.45
2022-09-12T22:06:14.398Z,64.51
2022-09-12T22:08:42.554Z,64.63
2022-09-12T22:11:11.046Z,64.68
2022-09-12T22:13:42.138Z,64.64
2022-09-12T22:16:10.090Z,64.60
2022-09-12T22:18:38.641Z,64.65
2022-09-12T22:21:14.281Z,64.80
2022-09-12T22:24:01.195Z,64.64
2022-09-12T22:26:29.405Z,64.70
2022-09-12T22:28:57.285Z,64.67
2022-09-12T22:31:26.694Z,64.81
2022-09-12T22:33:57.212Z,64.89
2022-09-12T22:36:30.490Z,64.86
2022-09-12T22:38:59.810Z,64.93
2022-09-12T22:41:28.571Z,65.02
2022-09-12T22:43:57.105Z,65.17
2022-09-12T22:46:25.200Z,65.03
2022-09-12T22:48:53.130Z,65.23
2022-09-12T22:51:20.896Z,65.22
2022-09-12T22:53:49.189Z,65.09
2022-09-12T22:56:18.210Z,65.13
2022-09-12T22:58:46.018Z,65.29
2022-09-12T23:01:14.307Z,65.26
2022-09-12T23:03:42.239Z,65.32
2022-09-12T23:06:11.340Z,65.38
2022-09-12T23:08:40.303Z,65.28
2022-09-12T23:11:14.299Z,65.39
2022-09-12T23:13:44.986Z,65.40
2022-09-12T23:16:19.260Z,65.30
2022-09-12T23:18:47.936Z,65.14
2022-09-12T23:21:17.932Z,65.28
2022-09-12T23:23:46.136Z,65.21
2022-09-12T23:26:19.113Z,65.25
2022-09-12T23:28:48.816Z,65.24
2022-09-12T23:31:17.571Z,65.51
2022-09-12T23:33:45.993Z,65.46
2022-09-12T23:36:14.596Z,65.56
2022-09-12T23:38:44.627Z,65.60
2022-09-12T23:41:17.092Z,65.42
2022-09-12T23:43:46.157Z,65.59
2022-09-12T23:46:15.493Z,65.44
2022-09-12T23:48:43.925Z,65.46
2022-09-12T23:51:12.071Z,65.37
2022-09-12T23:53:41.491Z,65.57
2022-09-12T23:56:10.093Z,65.57
2022-09-12T23:58:38.115Z,65.68
